Aérodrome :
LOGIN :

S'inscrire | Disclaimer

   EN    FR    IT 

 










Légende :    VFR   VFR Marginal   IFR   IFR Intensif   IFR Très Intensif
Visi : 
Plafond : 
>= 8 km
>= 3000ft
5 à 8 km
1000 à 3000 ft
1500m à 5 km
500 à 1000 ft
800 à 1500m
200 à 500 ft
< 800m
< 200 ft
Symboles :   Orages  Brouillard  Fortes neiges  Fortes précipitations  Vent > 20 kt
SIGMETs :   Divers  Orages  Givrage  Turbulence  Onde Orograph.  Cendres Volcan.






- Altitude de l'aérodrome : 197 ft
- Code IATA : XOG


LFMO - Orange

DERNIER METAR :
  • 090230Z AUTO 13003KT 100V210 3800 BR NSC 05/04 Q1017 TEMPO BKN005

METARs EXPIRÉS :
  • 090200Z AUTO 30006KT 9999 SCT006 SCT011 07/07 Q1017 TEMPO 3000 BR BKN005
  • 090130Z AUTO VRB03KT 9999 OVC013 08/07 Q1017
  • 090100Z AUTO 31004KT 9000 OVC013 07/07 Q1017 TEMPO 3000 BR BKN005
  • 090030Z AUTO 29002KT 9999 OVC013 07/07 Q1016 TEMPO 3000 BR BKN005
  • 090000Z AUTO 31003KT 8000 BKN012 OVC180 07/07 Q1016 TEMPO 3000 BR NSC

TAF TAF LFMO
Valide du 09 à 03h jusqu'au 10 à 03h UTC


090200Z 0903/1003 VRB02KT CAVOK
PROB40
TEMPO 0903/0905 3000 BR BKN005



MET'MAP, la Météo Aéronautique d'un coup d'oeil ! - Copyright ORBIFLY Décembre 2007 - Disclaimer

ORBIFLY MET'MAP TEAM :

Programmation & Développement : Alexandra Zaïnal
Sur une idée originale de : Baudouin d'Aumeries
Assistance à la programmation : Marc-Olivier Méhu
Soutien technique & logistique : Manuel Goepfert

Contact : metmap@orbifly.com




SOURCES & CREDITS :

   NOAA